createdAt,value
2023-03-23T15:58:29.966Z,14.03
2023-03-23T15:59:31.677Z,14.03
2023-03-23T16:00:35.777Z,14.05
2023-03-23T16:01:39.504Z,14.00
2023-03-23T16:02:43.571Z,14.20
2023-03-23T16:03:51.612Z,14.15
2023-03-23T16:04:53.257Z,14.21
2023-03-23T16:05:57.411Z,14.23
2023-03-23T16:07:00.117Z,14.26
2023-03-23T16:08:01.736Z,14.15
2023-03-23T16:09:05.980Z,14.07
2023-03-23T16:10:11.170Z,13.90
2023-03-23T16:11:14.029Z,13.80
2023-03-23T16:12:17.732Z,13.83
2023-03-23T16:13:19.410Z,13.81
2023-03-23T16:14:22.091Z,13.83
2023-03-23T16:15:23.730Z,13.77
2023-03-23T16:16:29.251Z,13.83
2023-03-23T16:17:30.974Z,13.74
2023-03-23T16:18:33.767Z,13.67
2023-03-23T16:19:36.308Z,13.75
2023-03-23T16:20:40.052Z,13.75
2023-03-23T16:21:42.817Z,13.79
2023-03-23T16:22:44.445Z,13.78
2023-03-23T16:23:47.176Z,13.74
2023-03-23T16:24:50.375Z,13.83
2023-03-23T16:25:53.103Z,13.78
2023-03-23T16:26:55.879Z,13.86
2023-03-23T16:27:58.505Z,13.84
2023-03-23T16:29:12.360Z,13.89
2023-03-23T16:30:22.452Z,13.83
2023-03-23T16:31:24.069Z,13.78
2023-03-23T16:32:26.743Z,13.86
2023-03-23T16:33:28.427Z,13.96
2023-03-23T16:34:33.652Z,14.05
2023-03-23T16:35:36.771Z,13.88
2023-03-23T16:36:38.472Z,13.88
2023-03-23T16:37:44.823Z,13.94
2023-03-23T16:38:49.327Z,13.97
2023-03-23T16:39:54.398Z,14.01
2023-03-23T16:40:56.370Z,14.00
2023-03-23T16:41:59.095Z,14.08
2023-03-23T16:43:00.758Z,14.06
2023-03-23T16:44:03.357Z,14.10
2023-03-23T16:45:08.528Z,13.97
2023-03-23T16:46:11.575Z,13.99
2023-03-23T16:47:13.477Z,13.83
2023-03-23T16:48:16.838Z,13.86
2023-03-23T16:49:18.448Z,13.89
2023-03-23T16:50:21.208Z,14.00
2023-03-23T16:51:22.980Z,13.83
2023-03-23T16:52:25.745Z,13.85
2023-03-23T16:53:28.413Z,13.84
2023-03-23T16:54:30.139Z,13.79
2023-03-23T16:55:34.098Z,13.75
2023-03-23T16:56:36.027Z,13.67
2023-03-23T16:57:39.026Z,13.74
2023-03-23T16:58:42.979Z,13.72
2023-03-23T16:59:44.917Z,13.65
2023-03-23T17:00:49.732Z,13.70
2023-03-23T17:01:51.885Z,13.69
2023-03-23T17:02:56.937Z,13.63
2023-03-23T17:03:59.601Z,13.57
2023-03-23T17:05:01.737Z,13.67
2023-03-23T17:06:05.713Z,13.67
2023-03-23T17:07:07.373Z,13.60
2023-03-23T17:08:09.996Z,13.63
2023-03-23T17:09:11.656Z,13.59
2023-03-23T17:10:14.519Z,13.60
2023-03-23T17:11:18.472Z,13.56
2023-03-23T17:12:20.785Z,13.49
2023-03-23T17:13:25.305Z,13.53
2023-03-23T17:14:26.952Z,13.46
2023-03-23T17:15:29.757Z,13.46
2023-03-23T17:16:31.408Z,13.52
2023-03-23T17:17:34.097Z,13.45
2023-03-23T17:18:36.058Z,13.46
2023-03-23T17:19:38.919Z,13.47
2023-03-23T17:20:41.610Z,13.43
2023-03-23T17:21:43.384Z,13.40
2023-03-23T17:22:46.025Z,13.42
2023-03-23T17:23:47.664Z,13.44
2023-03-23T17:24:50.283Z,13.40
2023-03-23T17:25:53.939Z,13.41
2023-03-23T17:26:57.937Z,13.40
2023-03-23T17:28:05.730Z,13.35
2023-03-23T17:29:08.011Z,13.34
2023-03-23T17:30:11.091Z,13.37
2023-03-23T17:31:12.818Z,13.30
2023-03-23T17:32:15.645Z,13.30
2023-03-23T17:33:18.502Z,13.28
2023-03-23T17:34:20.128Z,13.30
2023-03-23T17:35:22.842Z,13.23
2023-03-23T17:36:24.653Z,13.19
2023-03-23T17:37:27.498Z,13.26
2023-03-23T17:38:29.201Z,13.23
2023-03-23T17:39:32.619Z,13.22
2023-03-23T17:40:46.010Z,13.21
2023-03-23T17:41:47.724Z,13.24
2023-03-23T17:42:51.668Z,13.23
2023-03-23T17:43:53.335Z,13.15
2023-03-23T17:44:56.134Z,13.20
2023-03-23T17:45:57.748Z,13.21
2023-03-23T17:47:01.262Z,13.14
2023-03-23T17:48:07.413Z,13.11
2023-03-23T17:49:10.451Z,13.08
2023-03-23T17:50:12.778Z,13.13
2023-03-23T17:51:15.547Z,13.12
2023-03-23T17:52:17.186Z,13.12
2023-03-23T17:53:20.095Z,13.01
2023-03-23T17:54:21.795Z,13.02
2023-03-23T17:55:24.477Z,13.03
2023-03-23T17:56:29.102Z,13.06
2023-03-23T17:57:31.900Z,13.08
2023-03-23T17:58:35.362Z,13.13
2023-03-23T17:59:38.184Z,13.12
2023-03-23T18:00:39.909Z,13.07
2023-03-23T18:01:42.482Z,13.07
2023-03-23T18:02:44.260Z,13.08
2023-03-23T18:03:47.235Z,13.05
2023-03-23T18:04:49.127Z,13.07
2023-03-23T18:05:52.245Z,13.01
2023-03-23T18:06:56.281Z,12.97
2023-03-23T18:07:58.232Z,12.96
2023-03-23T18:09:01.191Z,12.95
2023-03-23T18:10:03.479Z,12.93
2023-03-23T18:11:06.891Z,12.93
2023-03-23T18:12:08.698Z,12.95
2023-03-23T18:13:11.442Z,12.91
2023-03-23T18:14:15.433Z,12.97
2023-03-23T18:15:17.445Z,12.99
2023-03-23T18:16:20.468Z,12.94
2023-03-23T18:17:22.130Z,12.91
2023-03-23T18:18:25.118Z,12.90
2023-03-23T18:19:28.838Z,12.90
2023-03-23T18:20:31.858Z,12.93
2023-03-23T18:21:34.522Z,12.95
2023-03-23T18:22:37.123Z,12.90
2023-03-23T18:23:49.334Z,12.94
2023-03-23T18:24:55.747Z,12.88
2023-03-23T18:25:57.511Z,12.87
2023-03-23T18:27:02.114Z,12.90
2023-03-23T18:28:05.808Z,12.87
2023-03-23T18:29:09.451Z,12.88
2023-03-23T18:30:12.644Z,12.81
2023-03-23T18:31:16.210Z,12.79
2023-03-23T18:32:19.776Z,12.82
2023-03-23T18:33:21.999Z,12.88
2023-03-23T18:34:24.761Z,12.87
2023-03-23T18:35:26.514Z,12.86
2023-03-23T18:36:30.089Z,12.88
2023-03-23T18:37:32.853Z,12.91
2023-03-23T18:38:34.567Z,12.88
2023-03-23T18:39:37.959Z,12.84
2023-03-23T18:40:42.900Z,12.81
2023-03-23T18:41:45.764Z,12.77
2023-03-23T18:42:47.393Z,12.76
2023-03-23T18:43:49.977Z,12.74
2023-03-23T18:44:52.726Z,12.77
2023-03-23T18:45:56.624Z,12.78
2023-03-23T18:47:00.106Z,12.80
2023-03-23T18:48:01.873Z,12.81
2023-03-23T18:49:04.689Z,12.81
2023-03-23T18:50:07.351Z,12.77
2023-03-23T18:51:09.943Z,12.76
2023-03-23T18:52:12.707Z,12.75
2023-03-23T18:53:14.869Z,12.74
2023-03-23T18:54:17.567Z,12.76
2023-03-23T18:55:20.899Z,12.72
2023-03-23T18:56:24.822Z,12.80
2023-03-23T18:57:26.885Z,12.79
2023-03-23T18:58:29.595Z,12.81
2023-03-23T18:59:34.405Z,12.77
2023-03-23T19:00:37.137Z,12.76
2023-03-23T19:01:41.156Z,12.75
2023-03-23T19:02:44.165Z,12.78
2023-03-23T19:03:47.267Z,12.76
2023-03-23T19:04:48.993Z,12.77
2023-03-23T19:05:51.678Z,12.71
2023-03-23T19:06:53.371Z,12.76
2023-03-23T19:07:56.545Z,12.79
2023-03-23T19:08:59.246Z,12.77
2023-03-23T19:10:01.929Z,12.74
2023-03-23T19:11:04.368Z,12.75
2023-03-23T19:12:07.417Z,12.77
2023-03-23T19:13:09.320Z,12.81
2023-03-23T19:14:11.909Z,12.77
2023-03-23T19:15:13.685Z,12.76
2023-03-23T19:16:16.313Z,12.76
2023-03-23T19:17:20.344Z,12.72
2023-03-23T19:18:22.173Z,12.66
2023-03-23T19:19:25.480Z,12.69
2023-03-23T19:20:57.329Z,12.74
2023-03-23T19:21:50.130Z,12.74
2023-03-23T19:22:51.834Z,12.72
2023-03-23T19:23:54.758Z,12.72
2023-03-23T19:24:56.976Z,12.73
2023-03-23T19:25:59.581Z,12.73
2023-03-23T19:27:01.720Z,12.75
2023-03-23T19:30:16.246Z,12.80
2023-03-23T19:31:21.546Z,12.77
2023-03-23T19:32:25.633Z,12.79
2023-03-23T19:33:27.269Z,12.78
2023-03-23T19:34:30.722Z,12.74
2023-03-23T19:35:32.370Z,12.77
2023-03-23T19:36:35.531Z,12.78
2023-03-23T19:37:38.184Z,12.79
2023-03-23T19:38:39.827Z,12.79
2023-03-23T19:39:43.107Z,12.81
2023-03-23T19:40:51.792Z,12.78
2023-03-23T19:41:55.839Z,12.81
2023-03-23T19:42:57.654Z,12.81
2023-03-23T19:44:01.212Z,12.78
2023-03-23T19:45:03.476Z,12.78
2023-03-23T19:46:06.422Z,12.77
2023-03-23T19:47:08.062Z,12.74
2023-03-23T19:48:12.176Z,12.73
2023-03-23T19:49:14.668Z,12.67
2023-03-23T19:50:17.636Z,12.67
2023-03-23T19:51:20.164Z,12.66
2023-03-23T19:52:23.370Z,12.69
2023-03-23T19:53:27.087Z,12.73
2023-03-23T19:54:28.737Z,12.72
2023-03-23T19:55:31.526Z,12.71
2023-03-23T19:56:34.450Z,12.69
2023-03-23T19:57:37.879Z,12.68
2023-03-23T19:58:39.963Z,12.71
2023-03-23T19:59:42.992Z,12.73
2023-03-23T20:00:45.837Z,12.68
2023-03-23T20:01:48.800Z,12.66
2023-03-23T20:02:51.580Z,12.64
2023-03-23T20:03:57.500Z,12.62
2023-03-23T20:05:02.686Z,12.66
2023-03-23T20:06:07.126Z,12.70
2023-03-23T20:07:08.880Z,12.74
2023-03-23T20:08:11.641Z,12.70
2023-03-23T20:09:13.389Z,12.66
2023-03-23T20:10:16.403Z,12.67
2023-03-23T20:11:19.729Z,12.64
2023-03-23T20:12:22.542Z,12.68
2023-03-23T20:13:24.762Z,12.66
2023-03-23T20:14:27.388Z,12.68
2023-03-23T20:15:29.957Z,12.72
2023-03-23T20:16:33.012Z,12.71
2023-03-23T20:17:35.319Z,12.74
2023-03-23T20:18:38.519Z,12.71
2023-03-23T20:19:41.655Z,12.69
2023-03-23T20:20:44.521Z,12.68
2023-03-23T20:21:47.509Z,12.69
2023-03-23T20:22:50.790Z,12.65
2023-03-23T20:23:58.600Z,12.67
2023-03-23T20:25:01.423Z,12.64
2023-03-23T20:26:05.769Z,12.65
2023-03-23T20:27:08.394Z,12.68
2023-03-23T20:28:10.169Z,12.73
2023-03-23T20:29:12.952Z,12.71
2023-03-23T20:30:14.972Z,12.68
2023-03-23T20:31:23.199Z,12.69
2023-03-23T20:32:26.144Z,12.69
2023-03-23T20:33:30.437Z,12.71
2023-03-23T20:34:33.333Z,12.71
2023-03-23T20:35:36.718Z,12.67
2023-03-23T20:36:45.432Z,12.67
2023-03-23T20:37:52.601Z,12.70
2023-03-23T20:38:54.222Z,12.68
2023-03-23T20:39:57.232Z,12.74
2023-03-23T20:40:59.629Z,12.71
2023-03-23T20:42:03.308Z,12.74
2023-03-23T20:43:04.966Z,12.71
2023-03-23T20:44:13.474Z,12.66
2023-03-23T20:45:15.983Z,12.68
2023-03-23T20:46:19.007Z,12.70
2023-03-23T20:47:21.591Z,12.65
2023-03-23T20:48:23.820Z,12.67
2023-03-23T20:49:27.440Z,12.64
2023-03-23T20:50:30.209Z,12.65
2023-03-23T20:51:33.562Z,12.67
2023-03-23T20:52:36.798Z,12.65
2023-03-23T20:53:39.507Z,12.70
2023-03-23T20:54:42.653Z,12.66
2023-03-23T20:55:45.599Z,12.63
2023-03-23T20:56:48.371Z,12.66
2023-03-23T20:57:50.006Z,12.69
2023-03-23T20:58:53.386Z,12.75
2023-03-23T20:59:55.614Z,12.77
2023-03-23T21:00:59.137Z,12.81
2023-03-23T21:02:01.783Z,12.83
2023-03-23T21:03:03.438Z,12.80
2023-03-23T21:04:08.111Z,12.71
2023-03-23T21:05:09.743Z,12.74
2023-03-23T21:06:12.333Z,12.72
2023-03-23T21:07:16.319Z,12.77
2023-03-23T21:08:19.592Z,12.79
2023-03-23T21:09:21.399Z,12.78
2023-03-23T21:10:25.626Z,12.81
2023-03-23T21:11:27.580Z,12.77
2023-03-23T21:12:30.343Z,12.83
2023-03-23T21:13:32.100Z,12.88
2023-03-23T21:14:34.787Z,12.82
2023-03-23T21:15:36.544Z,12.86
2023-03-23T21:16:39.210Z,12.84
2023-03-23T21:17:42.071Z,12.87
2023-03-23T21:18:44.086Z,12.83
2023-03-23T21:19:47.542Z,12.88
2023-03-23T21:20:50.354Z,12.87
2023-03-23T21:21:55.722Z,12.81
2023-03-23T21:22:59.909Z,12.84
2023-03-23T21:24:03.501Z,12.84
2023-03-23T21:25:06.720Z,12.87
2023-03-23T21:26:09.509Z,12.92
2023-03-23T21:27:12.122Z,12.92
2023-03-23T21:28:13.776Z,12.91
2023-03-23T21:29:16.413Z,12.91
2023-03-23T21:30:18.262Z,12.84
2023-03-23T21:31:21.239Z,12.89
2023-03-23T21:32:23.875Z,12.88
2023-03-23T21:33:25.706Z,12.84
2023-03-23T21:34:28.416Z,12.84
2023-03-23T21:35:30.223Z,12.88
2023-03-23T21:36:32.841Z,12.93
2023-03-23T21:37:34.532Z,12.94
2023-03-23T21:38:39.674Z,12.94
2023-03-23T21:39:41.621Z,12.95
2023-03-23T21:40:44.716Z,12.89
2023-03-23T21:41:49.651Z,12.90
2023-03-23T21:42:53.116Z,12.88
2023-03-23T21:43:55.845Z,12.93
2023-03-23T21:44:57.654Z,12.91
2023-03-23T21:46:02.811Z,12.86
2023-03-23T21:47:05.562Z,12.91
2023-03-23T21:48:07.291Z,12.93
2023-03-23T21:49:14.024Z,12.86
2023-03-23T21:50:16.306Z,12.90
2023-03-23T21:51:21.145Z,12.89
2023-03-23T21:52:22.824Z,12.92
2023-03-23T21:53:28.014Z,12.92
2023-03-23T21:54:34.302Z,12.85
2023-03-23T21:55:36.205Z,12.91
2023-03-23T21:56:39.111Z,12.95
2023-03-23T21:57:42.245Z,12.91
2023-03-23T21:58:44.967Z,12.89
2023-03-23T21:59:47.857Z,12.92
2023-03-23T22:00:53.736Z,12.88
2023-03-23T22:01:58.065Z,12.86
2023-03-23T22:03:00.145Z,12.89
2023-03-23T22:04:02.944Z,12.91
2023-03-23T22:05:05.212Z,12.92
2023-03-23T22:06:10.650Z,12.91
2023-03-23T22:07:12.811Z,12.86
2023-03-23T22:08:15.566Z,12.77
2023-03-23T22:09:18.531Z,12.79
2023-03-23T22:10:21.606Z,12.79
2023-03-23T22:11:25.234Z,12.75
2023-03-23T22:12:27.475Z,12.79
2023-03-23T22:13:30.523Z,12.83
2023-03-23T22:14:32.362Z,12.90
2023-03-23T22:15:35.278Z,12.91
2023-03-23T22:16:37.247Z,12.88
2023-03-23T22:17:40.089Z,12.77
2023-03-23T22:18:43.244Z,12.68
2023-03-23T22:19:46.379Z,12.74
2023-03-23T22:20:48.126Z,12.75
2023-03-23T22:21:50.814Z,12.72
2023-03-23T22:22:53.347Z,12.65
2023-03-23T22:23:57.440Z,12.64
2023-03-23T22:24:59.191Z,12.68
2023-03-23T22:26:03.790Z,12.77
2023-03-23T22:27:05.424Z,12.75
2023-03-23T22:28:08.350Z,12.79
2023-03-23T22:29:11.256Z,12.78
2023-03-23T22:30:14.168Z,12.80
2023-03-23T22:31:18.407Z,12.75
2023-03-23T22:32:21.309Z,12.71
2023-03-23T22:33:23.029Z,12.58
2023-03-23T22:34:25.857Z,12.56
2023-03-23T22:35:27.571Z,12.45
2023-03-23T22:36:30.764Z,12.51
2023-03-23T22:37:32.391Z,12.54
2023-03-23T22:38:35.454Z,12.43
2023-03-23T22:39:38.735Z,12.39
2023-03-23T22:40:42.458Z,12.33
2023-03-23T22:41:46.573Z,12.30
2023-03-23T22:42:48.239Z,12.29
2023-03-23T22:43:50.855Z,12.45
2023-03-23T22:44:52.484Z,12.48
2023-03-23T22:45:55.294Z,12.40
2023-03-23T22:46:57.013Z,12.34
2023-03-23T22:47:59.876Z,12.28
2023-03-23T22:49:01.750Z,12.26
2023-03-23T22:50:04.555Z,12.21
2023-03-23T22:51:08.144Z,12.18
2023-03-23T22:52:09.952Z,12.20
2023-03-23T22:53:12.546Z,12.17
2023-03-23T22:54:15.575Z,12.19
2023-03-23T22:55:17.277Z,12.10
2023-03-23T22:56:20.042Z,11.96
2023-03-23T22:57:24.167Z,11.92
2023-03-23T22:58:26.230Z,11.89
2023-03-23T22:59:28.875Z,11.79
2023-03-23T23:00:30.842Z,11.76
2023-03-23T23:01:33.519Z,11.79
2023-03-23T23:02:35.277Z,11.87
2023-03-23T23:03:38.360Z,11.88
2023-03-23T23:04:40.894Z,12.09
2023-03-23T23:05:43.751Z,12.04
2023-03-23T23:06:46.354Z,12.07
2023-03-23T23:07:48.027Z,12.01
2023-03-23T23:08:51.679Z,12.00
2023-03-23T23:09:53.316Z,12.07
2023-03-23T23:10:57.513Z,12.08
2023-03-23T23:11:59.292Z,11.96
2023-03-23T23:13:03.312Z,11.90
2023-03-23T23:14:05.424Z,11.90
2023-03-23T23:15:09.406Z,11.80
2023-03-23T23:16:12.162Z,11.88
2023-03-23T23:17:14.040Z,12.00
2023-03-23T23:18:16.953Z,11.94
2023-03-23T23:19:18.550Z,11.72
2023-03-23T23:20:24.418Z,11.70
2023-03-23T23:21:26.569Z,11.75
2023-03-23T23:22:29.221Z,11.79
2023-03-23T23:23:31.710Z,11.86
2023-03-23T23:24:34.302Z,11.88
2023-03-23T23:25:36.564Z,11.80
2023-03-23T23:26:39.169Z,11.83
2023-03-23T23:27:41.228Z,11.76
2023-03-23T23:28:45.494Z,11.80
2023-03-23T23:29:47.838Z,11.71
2023-03-23T23:30:50.824Z,11.68
2023-03-23T23:31:52.445Z,11.68
2023-03-23T23:32:55.432Z,11.73
2023-03-23T23:33:58.232Z,11.76
2023-03-23T23:35:00.950Z,11.76
2023-03-23T23:36:02.644Z,11.82
2023-03-23T23:37:05.671Z,11.85
2023-03-23T23:38:09.263Z,11.88
2023-03-23T23:39:12.113Z,11.86
2023-03-23T23:40:15.097Z,11.89
2023-03-23T23:41:18.349Z,11.99
2023-03-23T23:42:19.967Z,11.98
2023-03-23T23:43:22.573Z,11.94
2023-03-23T23:44:25.895Z,11.93
2023-03-23T23:45:28.532Z,11.97
2023-03-23T23:46:30.909Z,11.95
2023-03-23T23:47:33.930Z,11.96
2023-03-23T23:48:35.603Z,11.96
2023-03-23T23:49:38.505Z,11.90
2023-03-23T23:50:40.195Z,11.93
2023-03-23T23:51:44.580Z,11.97
2023-03-23T23:52:46.563Z,11.98
2023-03-23T23:53:53.523Z,11.99
2023-03-23T23:54:55.278Z,11.99
2023-03-23T23:55:57.866Z,11.92
2023-03-23T23:57:00.011Z,11.95
2023-03-23T23:58:02.622Z,11.97
2023-03-23T23:59:04.312Z,11.96
